首页
METAR-TAF:

METAR-TAF

机场 :

Siler City, 北卡罗来纳州, 美国

纬度: 35-42-15N, 经度: 079-30-15W, 海拔: 187米

当前天气观测

该预报发布于29分钟前的05:55 UTC
静风
温度 9°C
湿度 100%
气压 1015 hPa
能見度: 3.2公里
散云层高于200英尺
轻雾

METAR: KSCR 230555Z AUTO 00000KT 2SM BR SCT002 09/09 A2997 RMK AO2 VIS 3/4V5 60001 T00910091 10180 20091 402400091

时间: 02:24 (06:24 UTC)


TAF: 丢失

超过4000个机场的气象观测和天气预报(METAR&TAF报告)。

可查询的气象台以黄色和红色小点在地图上表示。

将鼠标移到小点上方,可查看气象台名称。

然后点击查看天气观测和预报。

如需切换地图:点击带黑十字的绿色按钮放大地图;点击带横线的绿色按钮缩小地图;或者点击绿色箭头查看邻近地区的地图。


METAR-TAF: